createdAt,value
2019-04-28T00:06:57.062Z,8.5
2019-04-28T00:23:34.163Z,8.5
2019-04-28T00:40:11.502Z,8.5
2019-04-28T00:56:48.549Z,8.5
2019-04-28T01:13:25.804Z,8.5
2019-04-28T01:30:08.716Z,8.5
2019-04-28T01:46:40.232Z,8.5
2019-04-28T02:03:17.431Z,8.5
2019-04-28T02:19:54.597Z,8.5
2019-04-28T02:36:32.081Z,8.5
2019-04-28T02:53:10.977Z,8.5
2019-04-28T03:09:46.402Z,8.5
2019-04-28T03:26:23.470Z,8.5
2019-04-28T03:43:03.204Z,8.5
2019-04-28T03:59:37.833Z,8.5
2019-04-28T04:16:15.069Z,8.5
2019-04-28T04:32:52.291Z,8.5
2019-04-28T04:49:31.547Z,8.5
2019-04-28T05:06:06.766Z,8.5
2019-04-28T05:22:44.482Z,8.5
2019-04-28T05:39:21.574Z,8.8
2019-04-28T05:56:00.097Z,9.1
2019-04-28T06:12:37.583Z,9.4
2019-04-28T06:25:56.613Z,10.1
2019-04-28T06:42:35.533Z,10.4
2019-04-28T06:59:15.672Z,10.7
2019-04-28T07:15:54.067Z,10.7
2019-04-28T07:32:33.459Z,11.0
2019-04-28T07:49:13.038Z,11.4
2019-04-28T08:05:52.749Z,11.7
2019-04-28T08:22:32.634Z,11.7
2019-04-28T08:32:32.786Z,12.3
2019-04-28T08:49:13.565Z,12.6
2019-04-28T08:59:13.680Z,12.0
2019-04-28T09:09:13.609Z,11.4
2019-04-28T09:19:13.296Z,10.7
2019-04-28T09:35:53.455Z,10.4
2019-04-28T09:52:31.352Z,10.7
2019-04-28T10:02:31.197Z,11.4
2019-04-28T10:09:11.071Z,12.3
2019-04-28T10:19:11.620Z,13.0
2019-04-28T10:35:52.710Z,13.3
2019-04-28T10:52:34.409Z,13.6
2019-04-28T11:05:55.369Z,13.0
2019-04-28T11:09:16.511Z,12.3
2019-04-28T11:25:56.104Z,13.0
2019-04-28T11:29:16.392Z,13.6
2019-04-28T11:35:57.162Z,14.2
2019-04-28T11:42:37.972Z,14.2
2019-04-28T11:59:20.089Z,14.6
2019-04-28T12:06:01.057Z,13.9
2019-04-28T12:12:41.582Z,13.3
2019-04-28T12:26:03.065Z,13.9
2019-04-28T12:42:44.523Z,13.9
2019-04-28T12:59:26.223Z,13.6
2019-04-28T13:09:26.846Z,13.0
2019-04-28T13:16:07.110Z,12.3
2019-04-28T13:26:07.298Z,11.7
2019-04-28T13:39:27.407Z,12.3
2019-04-28T13:56:08.087Z,12.6
2019-04-28T14:09:28.852Z,13.3
2019-04-28T14:26:10.532Z,13.6
2019-04-28T14:42:52.086Z,13.6
2019-04-28T14:52:53.182Z,14.2
2019-04-28T15:09:35.079Z,13.6
2019-04-28T15:26:16.819Z,13.3
2019-04-28T15:42:57.719Z,13.0
2019-04-28T15:59:38.817Z,13.0
2019-04-28T16:16:19.872Z,12.6
2019-04-28T16:26:22.777Z,13.3
2019-04-28T16:36:21.034Z,14.2
2019-04-28T16:53:03.220Z,14.9
2019-04-28T17:03:04.917Z,15.5
2019-04-28T17:13:06.809Z,14.6
2019-04-28T17:23:07.974Z,13.9
2019-04-28T17:33:08.858Z,13.3
2019-04-28T17:39:49.295Z,12.6
2019-04-28T17:53:09.725Z,12.0
2019-04-28T18:09:49.800Z,11.7
2019-04-28T18:26:29.550Z,11.0
2019-04-28T18:43:08.726Z,10.7
2019-04-28T18:59:47.515Z,10.4
2019-04-28T19:16:26.203Z,10.1
2019-04-28T19:33:05.007Z,9.8
2019-04-28T19:49:43.266Z,9.4
2019-04-28T20:06:21.500Z,9.4
2019-04-28T20:22:59.552Z,9.1
2019-04-28T20:39:37.559Z,8.8
2019-04-28T20:56:15.358Z,8.8
2019-04-28T21:12:52.796Z,8.5
2019-04-28T21:29:30.503Z,8.5
2019-04-28T21:46:07.881Z,8.2
2019-04-28T22:02:45.354Z,7.8
2019-04-28T22:19:22.565Z,7.8
2019-04-28T22:35:59.643Z,7.5
2019-04-28T22:52:36.879Z,7.5
2019-04-28T23:09:13.504Z,7.5
2019-04-28T23:25:50.395Z,7.5
2019-04-28T23:42:26.678Z,7.2
2019-04-28T23:59:02.892Z,6.9
